Time;durP1;ratioP1;P1;durP2;ratioP2;P2;SDS_P1;SDS_P2;PMS_P1;PMS_P2;Temp;Humidity;BMP_temperature;BMP_pressure;BME280_temperature;BME280_humidity;BME280_pressure;Samples;Min_cycle;Max_cycle;Signal;HPM_P1;HPM_P2
2023/06/07 00:01:05;;;;;;;19.52;11.15;;;18.70;99.90;;;;;;5038997;28;20038;-79
2023/06/07 00:16:01;;;;;;;16.85;10.65;;;18.60;99.90;;;;;;4980177;23;20051;-76
2023/06/07 00:18:28;;;;;;;16.85;10.02;;;18.60;99.90;;;;;;4940159;28;20027;-78
2023/06/07 00:20:54;;;;;;;20.90;9.75;;;18.50;99.90;;;;;;4953644;28;20012;-78
2023/06/07 00:23:20;;;;;;;14.55;8.88;;;18.60;99.90;;;;;;4954086;28;20486;-79
2023/06/07 00:25:47;;;;;;;14.05;9.13;;;18.60;99.90;;;;;;4952994;28;20102;-75
2023/06/07 00:28:12;;;;;;;15.75;9.25;;;18.60;99.90;;;;;;4945243;28;20031;-77
2023/06/07 00:30:39;;;;;;;14.57;9.30;;;18.50;99.90;;;;;;4950812;28;20465;-77
2023/06/07 00:33:05;;;;;;;16.20;9.27;;;18.50;99.90;;;;;;4953162;28;20059;-77
2023/06/07 00:35:34;;;;;;;18.00;10.10;;;18.50;99.90;;;;;;4936644;28;20147;-78
2023/06/07 00:38:01;;;;;;;17.05;11.68;;;18.50;99.90;;;;;;4953075;28;20106;-75
2023/06/07 00:40:27;;;;;;;24.63;13.00;;;18.40;99.90;;;;;;4943081;29;20404;-77
2023/06/07 00:42:53;;;;;;;21.48;11.65;;;18.40;99.90;;;;;;4932051;29;20062;-73
2023/06/07 00:45:19;;;;;;;19.73;11.90;;;18.30;99.90;;;;;;4953206;28;20027;-75
2023/06/07 00:47:45;;;;;;;20.23;10.90;;;18.30;99.90;;;;;;4953366;28;20027;-79
2023/06/07 00:50:12;;;;;;;17.40;11.10;;;18.30;99.90;;;;;;4953574;28;20475;-75
2023/06/07 00:52:38;;;;;;;16.00;10.05;;;18.20;99.90;;;;;;4953481;28;20035;-75
2023/06/07 00:55:05;;;;;;;16.65;10.35;;;18.20;99.90;;;;;;4953439;28;20027;-78
2023/06/07 00:57:35;;;;;;;17.83;11.10;;;18.20;99.90;;;;;;4953463;28;20023;-80
2023/06/07 01:00:06;;;;;;;16.10;9.48;;;18.00;99.90;;;;;;4953146;28;20040;-76
2023/06/07 01:02:33;;;;;;;19.67;11.15;;;18.00;99.90;;;;;;4953779;28;20038;-78
2023/06/07 01:05:02;;;;;;;16.35;10.15;;;18.00;99.90;;;;;;4935658;28;20108;-78
2023/06/07 01:07:28;;;;;;;16.52;10.02;;;18.00;99.90;;;;;;4953993;28;20034;-79
2023/06/07 01:09:54;;;;;;;17.38;9.93;;;18.00;99.90;;;;;;4953117;28;20467;-79
2023/06/07 01:12:23;;;;;;;16.92;10.48;;;18.00;99.90;;;;;;4935949;29;20114;-75
2023/06/07 01:14:49;;;;;;;15.43;9.13;;;18.00;99.90;;;;;;4952553;28;20106;-74
2023/06/07 01:17:24;;;;;;;18.92;10.50;;;18.00;99.90;;;;;;4937944;29;20126;-76
2023/06/07 01:19:53;;;;;;;18.80;10.07;;;17.90;99.90;;;;;;4956416;28;20459;-78
2023/06/07 01:22:26;;;;;;;16.02;10.05;;;17.80;99.90;;;;;;4963373;28;20030;-73
2023/06/07 01:24:55;;;;;;;22.52;11.18;;;17.80;99.90;;;;;;4927634;29;20062;-74
2023/06/07 01:27:27;;;;;;;17.42;9.90;;;17.80;99.90;;;;;;4956710;28;20020;-74
2023/06/07 01:29:55;;;;;;;21.80;9.95;;;17.70;99.90;;;;;;4956622;28;20043;-74
2023/06/07 01:32:22;;;;;;;16.48;10.13;;;17.70;99.90;;;;;;4939028;28;20483;-74
2023/06/07 01:34:51;;;;;;;17.40;9.50;;;17.70;99.90;;;;;;4956709;28;20111;-74
2023/06/07 01:37:18;;;;;;;18.90;9.98;;;17.70;99.90;;;;;;4953973;28;20056;-75
2023/06/07 01:39:46;;;;;;;15.32;9.98;;;17.70;99.90;;;;;;4946721;29;20030;-75
2023/06/07 01:42:13;;;;;;;17.17;9.75;;;17.80;99.90;;;;;;4956561;28;20383;-76
2023/06/07 01:44:40;;;;;;;17.35;10.20;;;17.80;99.90;;;;;;4955874;28;20023;-76
2023/06/07 01:47:08;;;;;;;17.10;9.60;;;17.80;99.90;;;;;;4955854;28;20465;-76
2023/06/07 01:49:34;;;;;;;17.30;10.25;;;17.80;99.90;;;;;;4956734;28;20118;-76
2023/06/07 01:52:00;;;;;;;21.58;11.55;;;17.80;99.90;;;;;;4939149;29;20110;-76
2023/06/07 01:54:26;;;;;;;17.05;10.48;;;17.70;99.90;;;;;;4937458;29;20450;-76
2023/06/07 01:57:16;;;;;;;18.40;10.93;;;17.70;99.90;;;;;;4937887;29;20069;-76
2023/06/07 01:59:46;;;;;;;21.27;11.00;;;17.70;99.90;;;;;;4938910;28;20090;-76
2023/06/07 02:02:40;;;;;;;18.05;10.40;;;17.70;99.90;;;;;;4956323;28;20035;-76
2023/06/07 02:05:22;;;;;;;17.83;11.13;;;17.80;99.90;;;;;;4935007;29;20047;-79
2023/06/07 02:07:50;;;;;;;17.23;11.57;;;17.70;99.90;;;;;;4938170;29;20031;-76
2023/06/07 02:10:20;;;;;;;18.75;11.18;;;17.70;99.90;;;;;;4955824;28;20063;-77
2023/06/07 02:12:48;;;;;;;18.95;11.25;;;17.80;99.90;;;;;;4952843;28;20027;-76
2023/06/07 02:15:14;;;;;;;19.90;11.52;;;17.80;99.90;;;;;;4938349;29;20062;-76
2023/06/07 02:18:01;;;;;;;19.08;11.75;;;17.70;99.90;;;;;;4938362;28;20038;-74
2023/06/07 02:20:28;;;;;;;19.02;11.68;;;17.80;99.90;;;;;;4938678;29;20034;-74
2023/06/07 02:22:58;;;;;;;20.05;11.25;;;17.70;99.90;;;;;;4955705;28;20023;-74
2023/06/07 02:25:26;;;;;;;20.73;11.70;;;17.80;99.90;;;;;;4938298;29;20058;-74
2023/06/07 02:27:53;;;;;;;16.70;10.85;;;17.90;99.90;;;;;;4955801;28;20058;-74
2023/06/07 02:30:19;;;;;;;16.65;10.63;;;17.90;99.90;;;;;;4938133;28;20031;-74
2023/06/07 02:32:48;;;;;;;17.92;11.43;;;18.00;99.90;;;;;;4967654;28;20027;-77
2023/06/07 02:35:16;;;;;;;27.83;13.27;;;18.00;99.90;;;;;;4950684;28;20023;-73
2023/06/07 02:37:42;;;;;;;21.88;12.93;;;18.00;99.90;;;;;;4931401;28;20027;-74
2023/06/07 02:40:09;;;;;;;21.58;12.43;;;18.00;99.90;;;;;;4938373;29;20031;-73
2023/06/07 02:42:36;;;;;;;20.70;12.57;;;18.00;99.90;;;;;;4955251;28;20106;-75
2023/06/07 02:45:02;;;;;;;22.70;13.65;;;18.00;99.90;;;;;;4936340;29;20561;-74
2023/06/07 02:47:31;;;;;;;20.67;12.90;;;17.90;99.90;;;;;;4922435;29;20132;-76
2023/06/07 02:50:00;;;;;;;20.27;13.27;;;17.90;99.90;;;;;;4937890;28;20042;-76
2023/06/07 02:52:27;;;;;;;24.52;11.50;;;18.00;99.90;;;;;;4938168;29;20096;-73
2023/06/07 02:54:53;;;;;;;21.27;12.82;;;18.00;99.90;;;;;;4937574;29;20110;-73
2023/06/07 02:57:19;;;;;;;16.50;10.60;;;18.00;99.90;;;;;;4938135;29;20530;-74
2023/06/07 02:59:45;;;;;;;23.70;12.45;;;18.00;99.90;;;;;;4937619;29;20023;-76
2023/06/07 03:02:18;;;;;;;;;;;18.10;99.90;;;;;;4938211;29;20023;-75
2023/06/07 03:04:48;;;;;;;18.00;10.05;;;18.10;99.90;;;;;;4935918;28;19910;-76
2023/06/07 03:07:15;;;;;;;20.42;12.07;;;18.10;99.90;;;;;;4937724;28;20042;-76
2023/06/07 03:09:43;;;;;;;19.00;11.45;;;18.10;99.90;;;;;;4945769;28;20418;-75
2023/06/07 03:12:10;;;;;;;23.02;12.68;;;18.10;99.90;;;;;;4941547;28;20047;-74
2023/06/07 03:14:42;;;;;;;19.40;12.07;;;18.10;99.90;;;;;;4937571;29;20066;-76
2023/06/07 03:17:11;;;;;;;17.92;11.43;;;18.10;99.90;;;;;;4935576;29;20086;-75
2023/06/07 03:19:42;;;;;;;18.67;11.27;;;18.10;99.90;;;;;;4937382;29;20388;-76
2023/06/07 03:22:08;;;;;;;22.70;12.25;;;18.10;99.90;;;;;;4937251;29;20114;-76
2023/06/07 03:24:36;;;;;;;18.73;11.40;;;18.10;99.90;;;;;;4937495;29;20034;-75
2023/06/07 03:27:04;;;;;;;19.85;12.38;;;18.10;99.90;;;;;;4953347;28;20027;-77
2023/06/07 03:29:31;;;;;;;21.20;11.88;;;18.00;99.90;;;;;;4954228;28;20491;-75
2023/06/07 03:31:57;;;;;;;18.75;11.70;;;18.00;99.90;;;;;;4921399;29;20047;-73
2023/06/07 03:34:23;;;;;;;17.55;10.98;;;18.10;99.90;;;;;;4937016;28;20020;-74
2023/06/07 03:36:50;;;;;;;20.17;12.25;;;18.10;99.90;;;;;;4936483;29;20122;-74
2023/06/07 03:39:17;;;;;;;19.15;12.52;;;18.20;99.90;;;;;;4941668;28;20074;-74
2023/06/07 03:41:43;;;;;;;26.48;14.07;;;18.10;99.90;;;;;;4936692;29;20035;-75
2023/06/07 03:44:11;;;;;;;22.30;11.25;;;18.20;99.90;;;;;;4937009;29;20471;-74
2023/06/07 03:46:38;;;;;;;17.63;11.02;;;18.30;99.90;;;;;;4936979;29;20443;-74
2023/06/07 03:49:04;;;;;;;18.48;11.30;;;18.30;99.90;;;;;;4952494;28;20027;-75
2023/06/07 03:51:32;;;;;;;18.55;11.15;;;18.30;99.90;;;;;;4936851;29;20509;-76
2023/06/07 03:53:59;;;;;;;20.27;10.75;;;18.30;99.90;;;;;;4936939;29;20023;-77
2023/06/07 03:56:27;;;;;;;18.90;10.32;;;18.30;99.90;;;;;;4936785;28;20046;-75
2023/06/07 03:58:54;;;;;;;20.92;9.75;;;18.30;99.90;;;;;;4935214;29;20023;-77
2023/06/07 04:01:25;;;;;;;18.60;10.48;;;18.30;99.90;;;;;;4936574;28;20059;-75
2023/06/07 04:03:52;;;;;;;17.45;10.07;;;18.30;99.90;;;;;;4936940;29;20110;-78
2023/06/07 04:06:24;;;;;;;18.20;9.82;;;18.30;99.90;;;;;;4970781;28;20150;-77
2023/06/07 04:08:56;;;;;;;14.00;8.68;;;18.30;99.90;;;;;;4961061;28;20509;-77
2023/06/07 04:11:26;;;;;;;14.93;9.00;;;18.40;99.90;;;;;;4931960;28;20039;-74
2023/06/07 04:13:53;;;;;;;14.55;8.45;;;18.50;99.90;;;;;;4942949;28;20035;-78
2023/06/07 04:16:21;;;;;;;19.73;8.38;;;18.60;99.90;;;;;;4944120;28;20184;-74
2023/06/07 04:18:48;;;;;;;17.42;8.88;;;18.60;99.90;;;;;;4926727;29;20031;-77
2023/06/07 04:21:14;;;;;;;14.10;8.70;;;18.50;99.90;;;;;;4931183;28;20048;-76
2023/06/07 04:23:42;;;;;;;15.00;8.68;;;18.60;99.90;;;;;;4936553;29;20040;-77
2023/06/07 04:26:10;;;;;;;14.82;8.63;;;18.50;99.90;;;;;;4936458;29;20031;-77
2023/06/07 04:28:37;;;;;;;13.52;8.05;;;18.50;99.90;;;;;;4954122;28;20043;-75
2023/06/07 04:31:08;;;;;;;13.55;7.38;;;18.60;99.90;;;;;;4935426;28;20075;-75
2023/06/07 04:33:37;;;;;;;16.02;7.68;;;18.70;99.90;;;;;;4940685;28;20539;-77
2023/06/07 04:36:04;;;;;;;13.88;7.90;;;18.70;99.90;;;;;;4949353;28;20380;-76
2023/06/07 04:38:31;;;;;;;18.35;9.05;;;18.70;99.90;;;;;;4928605;29;20024;-76
2023/06/07 04:41:07;;;;;;;13.95;7.50;;;18.70;99.90;;;;;;4942687;28;20023;-78
2023/06/07 04:43:37;;;;;;;16.33;8.18;;;18.70;99.90;;;;;;4936040;28;20034;-75
2023/06/07 04:46:06;;;;;;;19.58;8.68;;;18.60;99.90;;;;;;4936534;29;20036;-76
2023/06/07 04:48:32;;;;;;;13.55;7.22;;;18.70;99.90;;;;;;4934572;28;20424;-76
2023/06/07 04:51:05;;;;;;;14.15;7.75;;;18.80;99.90;;;;;;4936635;28;20073;-75
2023/06/07 04:53:37;;;;;;;13.20;6.97;;;18.90;99.90;;;;;;4939305;29;20028;-77
2023/06/07 04:56:05;;;;;;;15.60;8.00;;;18.90;99.90;;;;;;4940056;28;20031;-76
2023/06/07 04:58:32;;;;;;;16.73;8.30;;;19.10;99.90;;;;;;4940095;29;20027;-76
2023/06/07 05:01:02;;;;;;;13.75;7.40;;;19.20;99.90;;;;;;4938086;29;20035;-76
2023/06/07 05:03:28;;;;;;;14.43;8.07;;;19.30;99.90;;;;;;4939939;29;20386;-76
2023/06/07 05:06:00;;;;;;;13.73;7.28;;;19.20;99.90;;;;;;4940126;29;20096;-75
2023/06/07 05:08:27;;;;;;;15.55;7.82;;;19.40;99.90;;;;;;4937960;29;20023;-76
2023/06/07 05:10:54;;;;;;;18.17;7.70;;;19.50;99.90;;;;;;4939977;29;20078;-76
2023/06/07 05:13:21;;;;;;;14.40;6.85;;;19.70;99.90;;;;;;4939489;29;20035;-76
2023/06/07 05:15:50;;;;;;;21.50;7.32;;;19.80;99.90;;;;;;4939732;29;20134;-78
2023/06/07 05:18:20;;;;;;;15.18;6.63;;;20.00;99.90;;;;;;4938329;29;20090;-76
2023/06/07 05:20:48;;;;;;;12.18;6.90;;;20.20;99.90;;;;;;4939830;29;20505;-76
2023/06/07 05:23:16;;;;;;;16.30;7.47;;;20.20;99.90;;;;;;4956760;28;20111;-76
2023/06/07 05:25:44;;;;;;;14.05;6.82;;;20.30;99.90;;;;;;4939624;28;20158;-77
2023/06/07 05:28:12;;;;;;;16.25;6.22;;;20.40;99.90;;;;;;4937875;29;20031;-76
2023/06/07 05:30:40;;;;;;;17.52;7.55;;;20.40;99.90;;;;;;4939493;28;20458;-76
2023/06/07 05:33:06;;;;;;;11.60;6.32;;;20.50;99.90;;;;;;4964478;28;20031;-76
2023/06/07 05:35:34;;;;;;;13.60;6.03;;;20.90;99.90;;;;;;4943672;28;20030;-77
2023/06/07 05:38:01;;;;;;;11.80;5.97;;;21.20;99.90;;;;;;4939570;29;20078;-76
2023/06/07 05:40:27;;;;;;;10.80;5.68;;;21.60;99.90;;;;;;4937347;28;20063;-75
2023/06/07 05:42:56;;;;;;;10.82;4.95;;;21.70;99.90;;;;;;4939381;29;20512;-75
2023/06/07 05:45:23;;;;;;;9.80;4.78;;;21.70;99.90;;;;;;4938955;28;20380;-76
2023/06/07 05:47:49;;;;;;;17.40;5.20;;;21.60;99.90;;;;;;4939299;29;20027;-76
2023/06/07 05:50:19;;;;;;;11.90;4.70;;;21.70;99.90;;;;;;4951737;28;20028;-77
2023/06/07 05:52:50;;;;;;;11.93;4.47;;;21.50;99.90;;;;;;4929931;29;20082;-75
2023/06/07 05:55:16;;;;;;;9.32;5.10;;;21.30;99.90;;;;;;4956302;28;20525;-76
2023/06/07 05:57:43;;;;;;;12.55;6.43;;;21.40;99.90;;;;;;4956122;28;20468;-76
2023/06/07 06:00:11;;;;;;;7.75;4.65;;;21.50;99.90;;;;;;4955980;28;20046;-76
2023/06/07 06:02:41;;;;;;;8.40;4.60;;;22.00;99.90;;;;;;4955195;28;20051;-77
2023/06/07 06:05:07;;;;;;;9.85;4.47;;;22.30;99.90;;;;;;4955730;28;20030;-77
2023/06/07 06:07:33;;;;;;;9.57;4.15;;;22.50;99.90;;;;;;4955749;29;20355;-77
2023/06/07 06:09:59;;;;;;;12.13;5.18;;;22.70;99.90;;;;;;4955905;28;20035;-76
2023/06/07 06:12:25;;;;;;;5.45;3.10;;;22.70;99.90;;;;;;4954464;29;20467;-75
2023/06/07 06:14:52;;;;;;;8.25;3.63;;;22.70;99.90;;;;;;4955357;28;20525;-75
2023/06/07 06:17:17;;;;;;;5.88;3.65;;;22.60;99.90;;;;;;4955763;28;20088;-77
2023/06/07 06:19:43;;;;;;;7.28;3.75;;;22.70;99.90;;;;;;4961502;28;20070;-76
2023/06/07 06:22:09;;;;;;;10.45;4.03;;;22.90;99.90;;;;;;4961571;28;20480;-74
2023/06/07 06:24:35;;;;;;;8.90;3.42;;;23.20;99.90;;;;;;4949838;28;20036;-76
2023/06/07 06:27:01;;;;;;;9.00;4.22;;;22.90;99.90;;;;;;4948291;28;20336;-78
2023/06/07 06:29:27;;;;;;;7.28;3.63;;;22.30;99.90;;;;;;4955664;28;20031;-77
2023/06/07 06:31:52;;;;;;;9.23;3.75;;;21.90;99.90;;;;;;4955807;28;20035;-76
2023/06/07 06:34:18;;;;;;;7.57;3.95;;;22.20;99.90;;;;;;4953737;28;20063;-75
2023/06/07 06:36:46;;;;;;;15.00;3.95;;;22.60;99.90;;;;;;4938537;29;20094;-75
2023/06/07 06:39:14;;;;;;;8.23;3.80;;;22.80;99.90;;;;;;4942473;28;20023;-74
2023/06/07 06:41:40;;;;;;;7.43;3.35;;;22.50;99.90;;;;;;4967482;28;20463;-75
2023/06/07 06:44:11;;;;;;;7.10;4.07;;;22.50;99.90;;;;;;4938287;28;20035;-74
2023/06/07 06:46:37;;;;;;;7.63;4.13;;;22.70;99.90;;;;;;4955124;28;20027;-75
2023/06/07 06:49:03;;;;;;;6.78;3.40;;;22.80;99.90;;;;;;4953852;28;20024;-77
2023/06/07 06:51:29;;;;;;;6.07;3.70;;;23.20;99.90;;;;;;4954993;28;20368;-78
2023/06/07 06:53:55;;;;;;;5.22;3.50;;;22.80;99.90;;;;;;4955764;28;20019;-75
2023/06/07 06:56:21;;;;;;;7.53;3.92;;;23.20;99.90;;;;;;4954427;28;20031;-76
2023/06/07 06:58:47;;;;;;;9.73;3.20;;;23.40;99.90;;;;;;4953660;28;20024;-76
2023/06/07 07:01:14;;;;;;;6.30;3.22;;;23.40;99.90;;;;;;4955015;28;20042;-75
2023/06/07 07:03:40;;;;;;;7.97;3.63;;;23.10;99.90;;;;;;4946218;28;20075;-78
2023/06/07 07:06:09;;;;;;;11.18;3.72;;;22.90;99.90;;;;;;4954915;29;20028;-76
2023/06/07 07:08:36;;;;;;;8.40;3.33;;;23.20;99.90;;;;;;4954747;28;20035;-76
2023/06/07 07:11:03;;;;;;;5.10;2.78;;;23.40;99.90;;;;;;4955112;28;20043;-75
2023/06/07 07:13:29;;;;;;;5.13;2.83;;;23.90;99.90;;;;;;4953114;28;20020;-77
2023/06/07 07:15:55;;;;;;;4.25;2.55;;;24.40;99.90;;;;;;4953709;28;20407;-75
2023/06/07 07:18:20;;;;;;;9.27;4.32;;;24.70;99.90;;;;;;4954454;28;20023;-77
2023/06/07 07:20:46;;;;;;;4.95;2.83;;;24.40;99.90;;;;;;4954555;29;20027;-75
2023/06/07 07:23:12;;;;;;;8.50;3.20;;;24.10;99.90;;;;;;4954379;28;20090;-78
2023/06/07 07:25:38;;;;;;;5.03;2.60;;;23.70;99.90;;;;;;4952801;28;20379;-75
2023/06/07 07:28:04;;;;;;;6.65;3.35;;;23.20;99.90;;;;;;4954556;29;20028;-75
2023/06/07 07:30:31;;;;;;;5.85;3.08;;;23.20;99.90;;;;;;4954328;28;20101;-75
2023/06/07 07:32:56;;;;;;;4.72;2.75;;;23.00;99.90;;;;;;4954742;28;20016;-76
2023/06/07 07:35:23;;;;;;;7.82;3.38;;;23.50;99.90;;;;;;4952086;28;20045;-79
2023/06/07 07:37:49;;;;;;;3.65;2.05;;;24.20;99.90;;;;;;4953697;28;20023;-76
2023/06/07 07:40:15;;;;;;;5.63;2.67;;;24.70;99.90;;;;;;4953960;28;20380;-75
2023/06/07 07:42:41;;;;;;;5.60;3.00;;;24.50;99.90;;;;;;4954410;28;20074;-76
2023/06/07 07:45:08;;;;;;;6.38;2.90;;;24.80;99.90;;;;;;4954214;28;20035;-76
2023/06/07 07:47:33;;;;;;;13.93;2.72;;;24.50;99.90;;;;;;4952521;28;20032;-74
2023/06/07 07:50:00;;;;;;;3.78;2.60;;;24.00;99.90;;;;;;4954334;28;20043;-75
2023/06/07 07:52:26;;;;;;;8.35;3.55;;;23.70;99.90;;;;;;4954115;28;20031;-75
2023/06/07 07:54:52;;;;;;;6.82;3.67;;;23.70;99.90;;;;;;4953962;28;20035;-76
2023/06/07 07:57:18;;;;;;;5.03;3.13;;;23.70;99.90;;;;;;4954144;28;20356;-76
2023/06/07 07:59:44;;;;;;;7.15;3.10;;;24.30;99.90;;;;;;4953936;28;20057;-74
2023/06/07 08:02:10;;;;;;;6.00;2.92;;;24.90;99.90;;;;;;4953967;28;20023;-75
2023/06/07 08:04:35;;;;;;;8.00;2.95;;;24.70;99.90;;;;;;4954119;28;20123;-74
2023/06/07 08:07:01;;;;;;;4.70;2.20;;;25.00;99.90;;;;;;4953966;28;20146;-74
2023/06/07 08:09:27;;;;;;;3.95;1.80;;;25.20;99.90;;;;;;4954907;28;20031;-74
2023/06/07 08:11:53;;;;;;;5.45;2.53;;;25.00;99.90;;;;;;4952583;28;20483;-75
2023/06/07 08:14:19;;;;;;;6.25;2.83;;;24.70;99.90;;;;;;4953390;28;20194;-77
2023/06/07 08:16:46;;;;;;;5.43;2.70;;;24.70;99.90;;;;;;4953331;28;20027;-75
2023/06/07 08:19:12;;;;;;;4.90;2.90;;;24.50;99.90;;;;;;4953902;28;20460;-76
2023/06/07 08:21:37;;;;;;;5.38;2.83;;;24.70;99.90;;;;;;4954162;28;20094;-74
2023/06/07 08:24:04;;;;;;;5.03;2.65;;;24.80;99.90;;;;;;4951511;28;20031;-75
2023/06/07 08:26:30;;;;;;;7.53;2.95;;;25.30;99.90;;;;;;4944237;28;20027;-74
2023/06/07 08:28:56;;;;;;;5.82;2.70;;;25.20;99.90;;;;;;4957266;28;20094;-76
2023/06/07 08:31:22;;;;;;;4.88;2.95;;;25.40;99.90;;;;;;4957655;28;20410;-77
2023/06/07 08:33:49;;;;;;;8.38;2.72;;;25.50;99.90;;;;;;4957869;28;20035;-74
2023/06/07 08:36:15;;;;;;;7.07;3.15;;;25.60;99.90;;;;;;4956428;28;20031;-75
2023/06/07 08:38:41;;;;;;;5.78;3.03;;;25.00;99.90;;;;;;4957367;28;20042;-77
2023/06/07 08:41:07;;;;;;;8.10;3.15;;;25.10;99.90;;;;;;4956920;28;20028;-77
2023/06/07 08:43:35;;;;;;;8.98;2.75;;;25.30;99.90;;;;;;4955708;28;20031;-74
2023/06/07 08:46:05;;;;;;;3.75;2.95;;;25.70;99.90;;;;;;4955404;28;20087;-76
2023/06/07 08:48:34;;;;;;;6.13;2.90;;;25.80;99.90;;;;;;4953201;28;20494;-76
2023/06/07 08:51:07;;;;;;;5.38;3.00;;;26.30;99.90;;;;;;4957261;28;20042;-77
2023/06/07 08:53:46;;;;;;;5.55;3.20;;;26.70;99.90;;;;;;4957905;28;20026;-75
2023/06/07 08:56:13;;;;;;;7.95;3.40;;;26.90;99.90;;;;;;4957781;28;20387;-76
2023/06/07 08:58:39;;;;;;;4.55;2.55;;;27.10;99.90;;;;;;4955140;28;20054;-76
2023/06/07 09:01:07;;;;;;;7.55;3.58;;;26.30;99.90;;;;;;4940094;29;20098;-76
2023/06/07 09:03:33;;;;;;;4.43;2.65;;;25.80;99.90;;;;;;4956341;28;20442;-75
2023/06/07 09:06:00;;;;;;;4.25;2.53;;;25.80;99.90;;;;;;4947563;28;20039;-75
2023/06/07 09:08:28;;;;;;;6.50;2.95;;;;;;;;;;4956812;28;20018;-75
2023/06/07 09:10:54;;;;;;;8.68;3.10;;;25.00;99.90;;;;;;4956692;28;20387;-75
2023/06/07 09:13:20;;;;;;;9.23;2.92;;;25.10;99.90;;;;;;4957017;28;20395;-77
2023/06/07 09:15:49;;;;;;;3.63;2.30;;;25.00;99.90;;;;;;4955198;28;20048;-76
2023/06/07 09:18:16;;;;;;;4.68;2.78;;;24.90;99.90;;;;;;4945121;29;20050;-77
2023/06/07 09:20:41;;;;;;;6.70;3.05;;;24.80;99.90;;;;;;4956689;28;20038;-77
2023/06/07 09:23:11;;;;;;;6.90;3.33;;;25.20;99.90;;;;;;4956879;28;20387;-76
2023/06/07 09:25:37;;;;;;;6.40;2.90;;;25.80;99.90;;;;;;4956506;29;20046;-76
2023/06/07 09:28:14;;;;;;;7.25;2.92;;;25.60;99.90;;;;;;4945507;28;20535;-75
2023/06/07 09:31:06;;;;;;;8.07;2.85;;;25.60;99.90;;;;;;4956582;28;20042;-76
2023/06/07 09:33:34;;;;;;;5.13;2.88;;;25.00;99.90;;;;;;4953580;28;20050;-75
2023/06/07 09:36:08;;;;;;;9.02;3.53;;;25.10;99.90;;;;;;4955065;28;20086;-74
2023/06/07 09:38:35;;;;;;;8.55;3.58;;;25.60;99.90;;;;;;4955636;28;20023;-75
2023/06/07 09:41:02;;;;;;;8.10;3.67;;;25.70;99.90;;;;;;4950895;28;20042;-75
2023/06/07 09:43:43;;;;;;;7.50;3.80;;;25.70;99.90;;;;;;4956499;28;20144;-74
2023/06/07 09:46:09;;;;;;;8.80;3.60;;;25.60;99.90;;;;;;4956404;28;20035;-75
2023/06/07 09:48:50;;;;;;;6.50;2.95;;;25.30;99.90;;;;;;4956456;28;20551;-74
2023/06/07 09:51:18;;;;;;;9.77;3.45;;;24.80;99.90;;;;;;4954631;28;20050;-74
2023/06/07 09:53:58;;;;;;;5.70;2.95;;;24.60;99.90;;;;;;4956350;28;20022;-74
2023/06/07 09:56:24;;;;;;;7.57;3.58;;;24.40;99.90;;;;;;4956285;28;20027;-75
2023/06/07 09:59:13;;;;;;;5.05;3.00;;;24.40;99.90;;;;;;4956169;28;20023;-77
2023/06/07 10:01:45;;;;;;;5.75;3.20;;;24.40;99.90;;;;;;4954144;28;20062;-75
2023/06/07 10:04:12;;;;;;;6.55;2.78;;;24.50;99.90;;;;;;4956165;28;20094;-75
2023/06/07 10:06:42;;;;;;;17.88;3.88;;;24.40;99.90;;;;;;4955494;28;20030;-75
2023/06/07 10:09:08;;;;;;;11.82;3.05;;;24.90;99.90;;;;;;4956113;28;20031;-75
2023/06/07 10:11:36;;;;;;;3.85;2.75;;;25.10;99.90;;;;;;4955173;28;20114;-74
2023/06/07 10:14:10;;;;;;;3.53;2.60;;;25.30;99.90;;;;;;4953256;28;20032;-76
2023/06/07 10:16:39;;;;;;;4.38;2.72;;;25.60;99.90;;;;;;4943623;28;20031;-75
2023/06/07 10:19:17;;;;;;;7.05;3.10;;;25.90;99.90;;;;;;4955648;28;20051;-73
2023/06/07 10:21:47;;;;;;;7.47;3.50;;;25.50;99.90;;;;;;4955673;28;20031;-73
2023/06/07 10:24:24;;;;;;;7.05;3.33;;;25.30;99.90;;;;;;4954442;28;20435;-74
2023/06/07 10:26:55;;;;;;;5.90;2.80;;;25.20;99.90;;;;;;4955869;28;20439;-74
2023/06/07 10:29:34;;;;;;;6.13;2.97;;;25.60;99.90;;;;;;4954955;28;20027;-75
2023/06/07 10:32:22;;;;;;;5.45;3.10;;;;;;;;;;4955396;28;20035;-75
2023/06/07 10:34:49;;;;;;;4.82;3.08;;;26.30;99.90;;;;;;4946193;28;20031;-77
2023/06/07 10:37:15;;;;;;;5.82;3.55;;;26.40;99.90;;;;;;4954878;28;20035;-75
2023/06/07 10:39:41;;;;;;;4.40;2.90;;;26.60;99.90;;;;;;4955206;28;20027;-76
2023/06/07 10:42:07;;;;;;;7.47;3.50;;;26.50;99.90;;;;;;4955096;29;20106;-76
2023/06/07 10:44:35;;;;;;;6.22;3.17;;;26.10;99.90;;;;;;4955152;28;20372;-75
2023/06/07 10:47:27;;;;;;;5.82;3.20;;;25.80;99.90;;;;;;4954666;28;20547;-74
2023/06/07 10:49:54;;;;;;;7.05;3.38;;;25.60;99.90;;;;;;4952246;28;20028;-74
2023/06/07 10:52:20;;;;;;;5.18;2.97;;;;;;;;;;4954377;28;20058;-74
2023/06/07 10:54:46;;;;;;;8.95;3.70;;;26.20;99.90;;;;;;4950724;28;21307;-75
2023/06/07 10:57:12;;;;;;;4.20;2.83;;;25.60;99.90;;;;;;4949287;28;20074;-77
2023/06/07 10:59:39;;;;;;;7.43;2.80;;;25.90;99.90;;;;;;4950858;28;20031;-75
2023/06/07 11:02:22;;;;;;;6.45;3.42;;;26.20;99.90;;;;;;4948180;28;20475;-74
2023/06/07 11:04:48;;;;;;;5.78;3.13;;;25.80;99.90;;;;;;4950763;28;20039;-75
2023/06/07 11:07:30;;;;;;;6.15;2.95;;;25.90;99.90;;;;;;4960359;28;20051;-75
2023/06/07 11:10:08;;;;;;;6.75;3.38;;;26.20;99.90;;;;;;4948540;28;20099;-74
2023/06/07 11:12:43;;;;;;;5.13;2.55;;;26.70;99.90;;;;;;4953086;28;20036;-77
2023/06/07 11:15:21;;;;;;;4.50;2.92;;;26.90;99.90;;;;;;4954604;28;20070;-77
2023/06/07 11:17:55;;;;;;;7.32;3.35;;;27.00;99.90;;;;;;4942054;29;20031;-76
2023/06/07 11:20:40;;;;;;;6.00;3.20;;;27.10;99.90;;;;;;4950680;28;20045;-75
2023/06/07 11:23:31;;;;;;;5.05;3.05;;;27.40;99.90;;;;;;4946887;28;20027;-75
2023/06/07 11:26:06;;;;;;;5.70;2.78;;;27.30;99.90;;;;;;4950562;28;20518;-76
2023/06/07 11:28:33;;;;;;;4.38;2.67;;;26.90;99.90;;;;;;4951883;28;20119;-75
2023/06/07 11:31:01;;;;;;;6.82;2.85;;;26.70;99.90;;;;;;4954477;28;20088;-75
2023/06/07 11:33:27;;;;;;;4.95;2.92;;;26.50;99.90;;;;;;4953993;28;20498;-76
2023/06/07 11:35:54;;;;;;;6.93;3.08;;;26.10;99.90;;;;;;4940508;29;20535;-75
2023/06/07 11:38:21;;;;;;;8.05;3.00;;;26.00;99.90;;;;;;4935413;29;20046;-77
2023/06/07 11:40:47;;;;;;;5.95;2.58;;;25.90;99.90;;;;;;4934693;29;20294;-76
2023/06/07 11:43:15;;;;;;;4.38;2.67;;;25.90;99.90;;;;;;4950558;28;20043;-76
2023/06/07 11:45:42;;;;;;;10.45;3.60;;;26.10;99.90;;;;;;4947718;28;20375;-74
2023/06/07 11:48:09;;;;;;;90.75;22.20;;;26.20;99.90;;;;;;4940897;29;20046;-76
2023/06/07 11:50:36;;;;;;;7.32;3.28;;;26.30;99.90;;;;;;4933909;29;20031;-75
2023/06/07 11:53:02;;;;;;;10.43;3.22;;;26.40;99.90;;;;;;4942146;29;20114;-76
2023/06/07 11:55:28;;;;;;;14.70;4.32;;;26.50;99.90;;;;;;4939074;29;20031;-76
2023/06/07 11:57:55;;;;;;;4.63;2.92;;;26.60;99.90;;;;;;4954333;28;20023;-76
2023/06/07 12:00:23;;;;;;;5.43;3.15;;;26.70;99.90;;;;;;4953776;28;20074;-75
2023/06/07 12:02:53;;;;;;;16.48;5.13;;;26.80;99.90;;;;;;4953873;28;20027;-76
2023/06/07 12:05:21;;;;;;;14.30;4.00;;;26.70;99.90;;;;;;4954582;28;20383;-75
2023/06/07 12:08:04;;;;;;;5.00;2.75;;;27.00;99.90;;;;;;4954653;28;20486;-75
2023/06/07 12:10:32;;;;;;;6.68;2.65;;;27.10;99.90;;;;;;4964000;28;20094;-75
2023/06/07 12:13:18;;;;;;;5.43;2.90;;;26.50;99.90;;;;;;4957604;28;20082;-77
2023/06/07 12:15:48;;;;;;;2.95;2.10;;;26.90;99.90;;;;;;4960044;28;20058;-76
2023/06/07 12:18:30;;;;;;;5.13;2.33;;;26.70;99.90;;;;;;4953840;28;20471;-74
2023/06/07 12:21:10;;;;;;;7.20;4.53;;;26.40;99.90;;;;;;4954034;28;20114;-77
2023/06/07 12:23:53;;;;;;;8.55;3.00;;;26.20;99.90;;;;;;4953629;28;20510;-75
2023/06/07 12:26:26;;;;;;;5.07;2.83;;;26.10;99.90;;;;;;4953974;28;20143;-74
2023/06/07 12:28:53;;;;;;;5.32;2.67;;;26.10;99.90;;;;;;4953773;28;20105;-76
2023/06/07 12:31:19;;;;;;;4.80;2.55;;;26.20;99.90;;;;;;4953877;28;20031;-76
2023/06/07 12:33:54;;;;;;;6.60;2.75;;;25.70;99.90;;;;;;4953618;28;20019;-75
2023/06/07 12:36:21;;;;;;;5.50;2.75;;;25.60;99.90;;;;;;4953776;28;20413;-75
2023/06/07 12:38:47;;;;;;;4.78;2.60;;;25.50;99.90;;;;;;4941011;28;20032;-75
2023/06/07 12:41:13;;;;;;;5.32;2.67;;;25.40;99.90;;;;;;4962218;28;20435;-75
2023/06/07 12:43:45;;;;;;;5.30;3.22;;;25.50;99.90;;;;;;4957703;28;20027;-74
2023/06/07 12:46:11;;;;;;;6.00;2.88;;;25.70;99.90;;;;;;4953744;28;20070;-75
2023/06/07 12:48:38;;;;;;;4.75;2.75;;;25.90;99.90;;;;;;4936197;28;20443;-75
2023/06/07 12:51:04;;;;;;;4.65;2.75;;;26.20;99.90;;;;;;4953576;28;20182;-76
2023/06/07 12:53:29;;;;;;;5.05;3.13;;;26.00;99.90;;;;;;4953399;28;20110;-76
2023/06/07 12:55:55;;;;;;;4.78;2.45;;;25.90;99.90;;;;;;4953700;28;20428;-76
2023/06/07 12:58:21;;;;;;;4.72;2.50;;;26.20;99.90;;;;;;4953442;28;20058;-75
2023/06/07 13:00:47;;;;;;;5.55;2.78;;;26.20;99.90;;;;;;4953896;28;20066;-76